createdAt,value
2023-11-18T00:00:00.538Z,62.35
2023-11-18T00:02:27.176Z,62.16
2023-11-18T00:04:53.994Z,62.28
2023-11-18T00:07:20.468Z,62.39
2023-11-18T00:09:46.902Z,61.86
2023-11-18T00:12:13.299Z,61.63
2023-11-18T00:14:42.959Z,61.50
2023-11-18T00:17:09.491Z,61.11
2023-11-18T00:19:36.019Z,61.30
2023-11-18T00:22:05.539Z,61.79
2023-11-18T00:24:31.949Z,62.02
2023-11-18T00:26:58.710Z,62.09
2023-11-18T00:29:25.453Z,62.68
2023-11-18T00:31:51.989Z,62.34
2023-11-18T00:34:18.912Z,62.35
2023-11-18T00:36:47.688Z,62.59
2023-11-18T00:39:17.080Z,62.31
2023-11-18T00:41:43.537Z,62.80
2023-11-18T00:44:10.006Z,62.51
2023-11-18T00:46:36.501Z,62.83
2023-11-18T00:49:03.209Z,62.56
2023-11-18T00:51:29.776Z,62.14
2023-11-18T00:53:58.693Z,62.56
2023-11-18T00:56:25.304Z,62.66
2023-11-18T00:58:52.427Z,63.15
2023-11-18T01:01:19.173Z,63.45
2023-11-18T01:03:45.798Z,63.39
2023-11-18T01:06:12.666Z,63.60
2023-11-18T01:08:39.364Z,63.98
2023-11-18T01:11:05.956Z,64.35
2023-11-18T01:13:34.968Z,63.46
2023-11-18T01:16:04.369Z,63.55
2023-11-18T01:18:31.063Z,64.16
2023-11-18T01:20:58.733Z,63.72
2023-11-18T01:23:27.334Z,63.87
2023-11-18T01:25:53.984Z,64.15
2023-11-18T01:28:20.710Z,63.85
2023-11-18T01:30:47.319Z,64.39
2023-11-18T01:33:14.178Z,64.95
2023-11-18T01:35:43.378Z,65.22
2023-11-18T01:38:10.043Z,64.83
2023-11-18T01:40:37.438Z,64.49
2023-11-18T01:43:04.094Z,64.56
2023-11-18T01:45:42.151Z,64.07
2023-11-18T01:48:09.488Z,64.48
2023-11-18T01:50:36.066Z,64.02
2023-11-18T01:53:03.183Z,64.75
2023-11-18T01:55:35.329Z,64.26
2023-11-18T01:58:01.917Z,63.60
2023-11-18T02:00:28.473Z,63.99
2023-11-18T02:02:55.457Z,63.27
2023-11-18T02:05:27.927Z,63.41
2023-11-18T02:07:54.401Z,63.07
2023-11-18T02:10:20.848Z,63.40
2023-11-18T02:12:47.453Z,64.00
2023-11-18T02:15:16.904Z,64.22
2023-11-18T02:17:43.546Z,64.38
2023-11-18T02:20:10.596Z,63.83
2023-11-18T02:22:37.093Z,64.01
2023-11-18T02:27:53.818Z,64.73
2023-11-18T02:30:41.694Z,64.08
2023-11-18T02:33:16.316Z,63.60
2023-11-18T02:35:43.848Z,64.37
2023-11-18T02:38:13.550Z,65.10
2023-11-18T02:40:40.447Z,64.85
2023-11-18T02:43:11.165Z,65.12
2023-11-18T02:45:43.825Z,64.69
2023-11-18T02:48:10.614Z,64.50
2023-11-18T02:50:37.674Z,64.47
2023-11-18T02:53:04.417Z,64.51
2023-11-18T02:55:34.903Z,64.82
2023-11-18T02:58:06.799Z,64.55
2023-11-18T03:00:33.660Z,64.47
2023-11-18T03:03:00.143Z,64.37
2023-11-18T03:05:26.729Z,64.50
2023-11-18T03:07:56.296Z,64.54
2023-11-18T03:10:23.261Z,64.52
2023-11-18T03:12:50.050Z,64.53
2023-11-18T03:15:17.486Z,64.54
2023-11-18T03:17:44.087Z,64.13
2023-11-18T03:20:10.789Z,64.46
2023-11-18T03:22:37.370Z,64.50
2023-11-18T03:25:04.074Z,64.86
2023-11-18T03:27:30.613Z,64.29
2023-11-18T03:29:57.417Z,64.43
2023-11-18T03:32:24.995Z,63.67
2023-11-18T03:34:51.671Z,63.95
2023-11-18T03:37:18.627Z,63.87
2023-11-18T03:39:45.192Z,63.86
2023-11-18T03:42:11.767Z,63.24
2023-11-18T03:44:38.436Z,63.70
2023-11-18T03:47:06.167Z,63.34
2023-11-18T03:49:37.105Z,63.97
2023-11-18T03:52:06.683Z,63.43
2023-11-18T03:54:33.276Z,63.17
2023-11-18T03:56:59.920Z,63.59
2023-11-18T03:59:26.525Z,63.76
2023-11-18T04:01:53.314Z,63.09
2023-11-18T04:04:20.055Z,63.28
2023-11-18T04:06:46.636Z,62.06
2023-11-18T04:09:13.471Z,61.89
2023-11-18T04:11:40.038Z,61.17
2023-11-18T04:14:10.499Z,60.78
2023-11-18T04:16:37.132Z,61.41
2023-11-18T04:19:03.581Z,61.00
2023-11-18T04:21:30.193Z,61.81
2023-11-18T04:23:56.591Z,62.49
2023-11-18T04:26:23.038Z,62.61
2023-11-18T04:28:49.498Z,63.33
2023-11-18T04:31:16.042Z,63.72
2023-11-18T04:33:42.485Z,62.57
2023-11-18T04:36:08.877Z,63.03
2023-11-18T04:38:35.311Z,62.40
2023-11-18T04:41:01.751Z,63.29
2023-11-18T04:43:35.036Z,63.94
2023-11-18T04:46:11.542Z,63.92
2023-11-18T04:48:40.771Z,64.44
2023-11-18T04:51:08.654Z,64.10
2023-11-18T04:53:35.139Z,63.92
2023-11-18T04:56:01.920Z,63.91
2023-11-18T04:58:28.378Z,63.86
2023-11-18T05:00:54.821Z,63.85
2023-11-18T05:03:21.527Z,63.45
2023-11-18T05:05:48.331Z,63.92
2023-11-18T05:08:18.878Z,63.51
2023-11-18T05:10:45.383Z,63.03
2023-11-18T05:13:11.799Z,63.16
2023-11-18T05:15:40.799Z,63.47
2023-11-18T05:18:07.894Z,63.63
2023-11-18T05:20:34.947Z,64.03
2023-11-18T05:23:01.669Z,63.90
2023-11-18T05:25:28.434Z,64.39
2023-11-18T05:27:57.174Z,64.22
2023-11-18T05:30:23.873Z,63.77
2023-11-18T05:32:50.520Z,63.44
2023-11-18T05:35:19.578Z,62.50
2023-11-18T05:37:46.147Z,62.50
2023-11-18T05:40:13.036Z,63.23
2023-11-18T05:42:40.480Z,63.09
2023-11-18T05:45:09.834Z,62.45
2023-11-18T05:47:37.630Z,62.30
2023-11-18T05:50:04.359Z,61.97
2023-11-18T05:52:31.172Z,62.18
2023-11-18T05:54:58.775Z,62.38
2023-11-18T05:57:25.299Z,61.52
2023-11-18T05:59:52.161Z,61.16
2023-11-18T06:02:18.764Z,61.95
2023-11-18T06:04:45.398Z,62.18
2023-11-18T06:07:20.083Z,62.33
2023-11-18T06:09:46.778Z,62.21
2023-11-18T06:12:13.440Z,62.58
2023-11-18T06:14:40.281Z,62.94
2023-11-18T06:17:07.243Z,62.80
2023-11-18T06:19:33.868Z,63.16
2023-11-18T06:22:00.411Z,63.70
2023-11-18T06:24:27.017Z,63.22
2023-11-18T06:26:53.630Z,63.68
2023-11-18T06:29:22.310Z,63.37
2023-11-18T06:31:49.029Z,64.02
2023-11-18T06:34:15.685Z,63.91
2023-11-18T06:36:42.275Z,63.27
2023-11-18T06:39:10.948Z,63.28
2023-11-18T06:41:37.694Z,63.59
2023-11-18T06:44:06.743Z,63.25
2023-11-18T06:46:33.404Z,64.09
2023-11-18T06:49:00.641Z,63.98
2023-11-18T06:51:27.782Z,64.17
2023-11-18T06:53:55.237Z,68.24
2023-11-18T06:56:21.949Z,66.74
2023-11-18T06:58:48.506Z,65.44
2023-11-18T07:01:15.242Z,65.87
2023-11-18T07:03:45.096Z,66.88
2023-11-18T07:06:11.797Z,68.80
2023-11-18T07:08:38.261Z,68.25
2023-11-18T07:11:04.713Z,67.13
2023-11-18T07:13:31.185Z,66.10
2023-11-18T07:15:57.612Z,65.46
2023-11-18T07:18:24.028Z,63.87
2023-11-18T07:20:50.446Z,65.85
2023-11-18T07:23:16.886Z,65.04
2023-11-18T07:25:43.379Z,64.39
2023-11-18T07:28:09.915Z,62.16
2023-11-18T07:30:36.520Z,61.71
2023-11-18T07:33:02.969Z,60.93
2023-11-18T07:35:29.665Z,63.28
2023-11-18T07:37:56.119Z,62.00
2023-11-18T07:40:22.532Z,61.18
2023-11-18T07:42:48.958Z,61.07
2023-11-18T07:45:15.482Z,60.21
2023-11-18T07:47:41.930Z,59.50
2023-11-18T07:50:08.413Z,59.09
2023-11-18T07:52:34.831Z,58.79
2023-11-18T07:55:01.221Z,58.48
2023-11-18T07:57:28.028Z,57.82
2023-11-18T07:59:54.624Z,57.22
2023-11-18T08:02:21.263Z,56.60
2023-11-18T08:04:48.108Z,56.86
2023-11-18T08:07:14.698Z,56.98
2023-11-18T08:09:41.347Z,57.76
2023-11-18T08:12:08.091Z,59.47
2023-11-18T08:14:34.682Z,60.21
2023-11-18T08:17:01.561Z,61.88
2023-11-18T08:19:28.204Z,61.71
2023-11-18T08:21:54.982Z,60.17
2023-11-18T08:24:23.865Z,59.29
2023-11-18T08:26:50.476Z,59.62
2023-11-18T08:29:17.830Z,59.75
2023-11-18T08:31:44.545Z,59.42
2023-11-18T08:34:11.227Z,58.83
2023-11-18T08:36:37.831Z,58.18
2023-11-18T08:39:04.404Z,58.38
2023-11-18T08:41:34.890Z,58.62
2023-11-18T08:44:13.677Z,58.86
2023-11-18T08:46:47.792Z,58.99
2023-11-18T08:49:14.325Z,59.51
2023-11-18T08:51:40.790Z,60.54
2023-11-18T08:54:07.198Z,61.16
2023-11-18T08:56:33.618Z,61.94
2023-11-18T08:59:00.372Z,61.50
2023-11-18T09:01:26.847Z,60.88
2023-11-18T09:03:54.028Z,61.21
2023-11-18T09:06:20.925Z,62.01
2023-11-18T09:08:50.417Z,61.28
2023-11-18T09:11:16.900Z,61.60
2023-11-18T09:13:43.465Z,60.15
2023-11-18T09:16:10.402Z,60.17
2023-11-18T09:18:40.481Z,59.91
2023-11-18T09:21:10.003Z,60.20
2023-11-18T09:23:36.806Z,60.98
2023-11-18T09:26:03.299Z,61.53
2023-11-18T09:28:29.809Z,61.23
2023-11-18T09:30:56.474Z,61.15
2023-11-18T09:33:23.062Z,61.99
2023-11-18T09:35:49.726Z,60.92
2023-11-18T09:38:16.174Z,60.81
2023-11-18T09:40:42.666Z,60.99
2023-11-18T09:43:09.796Z,60.27
2023-11-18T09:45:36.381Z,61.17
2023-11-18T09:48:03.083Z,61.08
2023-11-18T09:50:29.857Z,60.31
2023-11-18T09:52:56.577Z,61.11
2023-11-18T09:55:26.371Z,61.57
2023-11-18T09:57:54.785Z,60.33
2023-11-18T10:00:22.931Z,59.23
2023-11-18T10:02:49.794Z,60.07
2023-11-18T10:05:16.585Z,60.10
2023-11-18T10:07:43.542Z,60.32
2023-11-18T10:10:10.153Z,59.71
2023-11-18T10:12:36.776Z,60.55
2023-11-18T10:15:06.364Z,60.77
2023-11-18T10:17:32.974Z,60.48
2023-11-18T10:19:59.503Z,61.42
2023-11-18T10:22:25.910Z,61.87
2023-11-18T10:24:52.441Z,61.44
2023-11-18T10:27:18.882Z,61.77
2023-11-18T10:29:45.310Z,61.89
2023-11-18T10:32:11.936Z,62.56
2023-11-18T10:34:38.591Z,62.87
2023-11-18T10:37:05.087Z,62.20
2023-11-18T10:39:31.539Z,62.87
2023-11-18T10:42:01.001Z,62.10
2023-11-18T10:44:28.084Z,62.61
2023-11-18T10:46:54.621Z,61.60
2023-11-18T10:49:21.183Z,61.36
2023-11-18T10:51:47.584Z,60.80
2023-11-18T10:54:14.006Z,61.27
2023-11-18T10:56:40.768Z,61.57
2023-11-18T10:59:07.545Z,62.35
2023-11-18T11:01:34.239Z,61.81
2023-11-18T11:04:03.336Z,62.66
2023-11-18T11:06:31.115Z,61.79
2023-11-18T11:08:57.789Z,61.38
2023-11-18T11:11:24.245Z,60.62
2023-11-18T11:13:50.876Z,60.32
2023-11-18T11:16:17.483Z,60.93
2023-11-18T11:18:44.401Z,60.70
2023-11-18T11:21:10.989Z,60.68
2023-11-18T11:23:37.687Z,60.70
2023-11-18T11:26:04.302Z,61.13
2023-11-18T11:28:31.140Z,61.02
2023-11-18T11:31:00.580Z,61.38
2023-11-18T11:33:27.246Z,61.36
2023-11-18T11:35:53.802Z,61.12
2023-11-18T11:38:20.442Z,61.97
2023-11-18T11:40:47.048Z,61.49
2023-11-18T11:43:13.744Z,61.63
2023-11-18T11:45:40.491Z,60.75
2023-11-18T11:48:07.413Z,60.33
2023-11-18T11:50:34.440Z,61.23
2023-11-18T11:53:01.595Z,60.91
2023-11-18T11:55:29.307Z,59.99
2023-11-18T11:57:56.278Z,60.97
2023-11-18T12:00:23.108Z,60.74
2023-11-18T12:02:49.807Z,61.81
2023-11-18T12:05:16.583Z,60.26
2023-11-18T12:07:43.415Z,61.23
2023-11-18T12:10:09.977Z,60.87
2023-11-18T12:12:36.641Z,61.29
2023-11-18T12:15:05.785Z,61.54
2023-11-18T12:17:32.439Z,60.80
2023-11-18T12:19:59.535Z,61.50
2023-11-18T12:22:26.378Z,61.93
2023-11-18T12:24:55.222Z,62.81
2023-11-18T12:27:25.685Z,62.93
2023-11-18T12:29:52.253Z,63.93
2023-11-18T12:32:18.860Z,64.13
2023-11-18T12:34:45.326Z,63.09
2023-11-18T12:37:11.803Z,63.86
2023-11-18T12:39:38.704Z,62.57
2023-11-18T12:42:05.108Z,61.64
2023-11-18T12:44:31.530Z,62.91
2023-11-18T12:46:57.974Z,62.79
2023-11-18T12:49:24.696Z,62.62
2023-11-18T12:51:51.298Z,62.83
2023-11-18T12:54:17.721Z,63.07
2023-11-18T12:56:44.139Z,63.76
2023-11-18T12:59:10.604Z,62.06
2023-11-18T13:01:37.295Z,60.59
2023-11-18T13:04:04.022Z,60.97
2023-11-18T13:06:30.623Z,61.90
2023-11-18T13:08:57.022Z,60.46
2023-11-18T13:11:23.521Z,59.00
2023-11-18T13:13:50.015Z,58.19
2023-11-18T13:16:16.513Z,56.84
2023-11-18T13:18:43.045Z,56.45
2023-11-18T13:21:09.468Z,56.69
2023-11-18T13:23:36.026Z,58.16
2023-11-18T13:26:02.444Z,56.43
2023-11-18T13:28:28.928Z,57.04
2023-11-18T13:30:55.359Z,57.73
2023-11-18T13:33:22.002Z,56.71
2023-11-18T13:35:51.216Z,56.90
2023-11-18T13:38:18.403Z,56.63
2023-11-18T13:40:45.006Z,55.67
2023-11-18T13:43:11.542Z,55.16
2023-11-18T13:45:38.816Z,54.89
2023-11-18T13:48:05.690Z,54.13
2023-11-18T13:50:32.354Z,55.59
2023-11-18T13:52:58.829Z,56.53
2023-11-18T13:55:25.339Z,58.60
2023-11-18T13:57:51.732Z,59.49
2023-11-18T14:00:18.145Z,58.32
2023-11-18T14:02:44.782Z,58.65
2023-11-18T14:05:11.434Z,59.63
2023-11-18T14:07:37.838Z,59.13
2023-11-18T14:10:04.252Z,60.21
2023-11-18T14:12:30.710Z,59.10
2023-11-18T14:14:57.175Z,59.78
2023-11-18T14:17:23.696Z,58.37
2023-11-18T14:19:50.248Z,59.45
2023-11-18T14:22:16.670Z,57.86
2023-11-18T14:24:43.073Z,58.75
2023-11-18T14:27:09.556Z,60.04
2023-11-18T14:29:36.026Z,58.79
2023-11-18T14:32:02.617Z,59.59
2023-11-18T14:34:31.441Z,60.10
2023-11-18T14:36:57.839Z,59.16
2023-11-18T14:39:24.439Z,58.54
2023-11-18T14:41:50.929Z,57.26
2023-11-18T14:44:17.446Z,57.17
2023-11-18T14:46:43.953Z,58.20
2023-11-18T14:49:10.426Z,58.26
2023-11-18T14:51:36.982Z,56.94
2023-11-18T14:54:03.810Z,57.77
2023-11-18T14:56:30.416Z,56.74
2023-11-18T14:58:56.994Z,59.47
2023-11-18T15:01:23.631Z,60.40
2023-11-18T15:03:50.622Z,61.12
2023-11-18T15:06:17.325Z,60.37
2023-11-18T15:08:46.481Z,60.12
2023-11-18T15:11:13.318Z,58.60
2023-11-18T15:13:40.265Z,58.15
2023-11-18T15:16:06.849Z,56.89
2023-11-18T15:18:33.818Z,57.13
2023-11-18T15:21:00.395Z,55.88
2023-11-18T15:23:27.278Z,55.45
2023-11-18T15:25:53.986Z,56.70
2023-11-18T15:28:20.580Z,56.59
2023-11-18T15:30:47.234Z,56.95
2023-11-18T15:33:14.001Z,57.10
2023-11-18T15:35:40.933Z,58.10
2023-11-18T15:38:07.531Z,57.62
2023-11-18T15:40:34.120Z,57.31
2023-11-18T15:43:00.764Z,56.75
2023-11-18T15:45:27.559Z,58.30
2023-11-18T15:47:54.360Z,57.31
2023-11-18T15:50:20.944Z,56.34
2023-11-18T15:52:47.508Z,56.41
2023-11-18T15:55:14.114Z,56.41
2023-11-18T15:57:40.662Z,58.12
2023-11-18T16:00:07.254Z,57.73
2023-11-18T16:02:33.912Z,57.58
2023-11-18T16:05:00.622Z,56.51
2023-11-18T16:07:27.228Z,57.62
2023-11-18T16:10:00.058Z,57.56
2023-11-18T16:12:26.627Z,57.28
2023-11-18T16:14:53.428Z,57.03
2023-11-18T16:17:20.043Z,57.03
2023-11-18T16:19:46.681Z,56.44
2023-11-18T16:22:13.329Z,59.04
2023-11-18T16:24:39.982Z,60.43
2023-11-18T16:27:07.328Z,61.31
2023-11-18T16:29:36.916Z,60.34
2023-11-18T16:32:03.607Z,61.17
2023-11-18T16:34:30.305Z,60.19
2023-11-18T16:36:57.260Z,58.30
2023-11-18T16:39:23.930Z,58.62
2023-11-18T16:41:50.551Z,57.66
2023-11-18T16:44:17.029Z,57.14
2023-11-18T16:46:43.474Z,56.87
2023-11-18T16:49:09.978Z,57.82
2023-11-18T16:51:36.429Z,57.83
2023-11-18T16:54:02.842Z,56.25
2023-11-18T16:56:29.338Z,57.21
2023-11-18T16:58:55.796Z,59.97
2023-11-18T17:01:22.221Z,59.26
2023-11-18T17:03:51.832Z,59.33
2023-11-18T17:06:18.303Z,59.50
2023-11-18T17:08:44.740Z,59.45
2023-11-18T17:11:11.260Z,60.42
2023-11-18T17:13:37.708Z,60.10
2023-11-18T17:16:04.193Z,59.68
2023-11-18T17:18:30.759Z,60.06
2023-11-18T17:20:57.266Z,60.03
2023-11-18T17:23:23.786Z,59.46
2023-11-18T17:25:50.377Z,58.78
2023-11-18T17:28:17.982Z,60.51
2023-11-18T17:30:44.554Z,60.80
2023-11-18T17:33:11.079Z,58.57
2023-11-18T17:35:37.636Z,57.79
2023-11-18T17:38:04.111Z,59.02
2023-11-18T17:40:30.791Z,58.56
2023-11-18T17:42:59.652Z,59.12
2023-11-18T17:45:26.220Z,58.80
2023-11-18T17:47:52.804Z,58.72
2023-11-18T17:50:23.007Z,61.15
2023-11-18T17:52:52.407Z,60.67
2023-11-18T17:55:19.378Z,60.11
2023-11-18T17:57:46.256Z,62.62
2023-11-18T18:00:12.961Z,63.11
2023-11-18T18:02:39.845Z,61.53
2023-11-18T18:05:06.498Z,60.64
2023-11-18T18:07:33.139Z,62.01
2023-11-18T18:09:59.742Z,61.28
2023-11-18T18:12:26.357Z,58.95
2023-11-18T18:14:53.441Z,58.58
2023-11-18T18:17:20.060Z,57.71
2023-11-18T18:19:46.643Z,58.31
2023-11-18T18:25:17.759Z,55.15
2023-11-18T18:27:44.385Z,54.44
2023-11-18T18:30:10.950Z,53.88
2023-11-18T18:32:37.727Z,53.91
2023-11-18T18:35:04.532Z,53.94
2023-11-18T18:37:31.224Z,53.86
2023-11-18T18:39:57.881Z,53.55
2023-11-18T18:42:24.605Z,57.31
2023-11-18T18:44:51.187Z,56.74
2023-11-18T18:47:20.218Z,56.75
2023-11-18T18:49:48.316Z,58.04
2023-11-18T18:52:14.881Z,58.41
2023-11-18T18:54:41.528Z,59.96
2023-11-18T18:57:08.167Z,58.99
2023-11-18T18:59:34.678Z,59.06
2023-11-18T19:02:06.145Z,58.91
2023-11-18T19:04:32.919Z,59.12
2023-11-18T19:06:59.353Z,60.17
2023-11-18T19:09:28.790Z,61.17
2023-11-18T19:11:55.191Z,60.47
2023-11-18T19:14:24.691Z,61.15
2023-11-18T19:16:51.233Z,60.90
2023-11-18T19:19:17.787Z,60.36
2023-11-18T19:21:44.541Z,60.50
2023-11-18T19:24:10.984Z,60.39
2023-11-18T19:26:37.584Z,61.20
2023-11-18T19:29:04.103Z,60.67
2023-11-18T19:31:30.535Z,60.20
2023-11-18T19:33:57.008Z,59.72
2023-11-18T19:36:23.546Z,59.85
2023-11-18T19:38:50.083Z,58.51
2023-11-18T19:41:16.531Z,59.14
2023-11-18T19:43:43.165Z,58.57
2023-11-18T19:46:11.155Z,58.90
2023-11-18T19:48:37.814Z,59.80
2023-11-18T19:51:04.292Z,58.87
2023-11-18T19:53:30.788Z,59.18
2023-11-18T19:55:57.485Z,60.21
2023-11-18T19:58:24.107Z,60.40
2023-11-18T20:00:50.738Z,59.65
2023-11-18T20:03:17.326Z,59.65
2023-11-18T20:05:44.087Z,61.57
2023-11-18T20:08:10.747Z,60.80
2023-11-18T20:10:37.261Z,60.74
2023-11-18T20:13:03.712Z,60.72
2023-11-18T20:15:30.169Z,60.40
2023-11-18T20:17:56.711Z,61.18
2023-11-18T20:20:23.238Z,61.68
2023-11-18T20:22:54.904Z,62.06
2023-11-18T20:25:21.850Z,62.01
2023-11-18T20:27:48.460Z,61.63
2023-11-18T20:30:15.065Z,61.55
2023-11-18T20:32:41.542Z,61.50
2023-11-18T20:35:08.049Z,61.47
2023-11-18T20:37:34.508Z,60.74
2023-11-18T20:40:01.042Z,60.68
2023-11-18T20:42:27.752Z,60.45
2023-11-18T20:44:54.257Z,61.81
2023-11-18T20:47:20.770Z,61.45
2023-11-18T20:49:47.203Z,60.71
2023-11-18T20:52:13.653Z,60.09
2023-11-18T20:54:40.152Z,58.92
2023-11-18T20:57:06.596Z,58.81
2023-11-18T20:59:33.201Z,59.06
2023-11-18T21:01:59.820Z,58.06
2023-11-18T21:04:26.620Z,58.28
2023-11-18T21:06:53.123Z,57.38
2023-11-18T21:09:19.582Z,57.40
2023-11-18T21:11:46.008Z,57.28
2023-11-18T21:14:12.413Z,57.53
2023-11-18T21:16:38.883Z,57.49
2023-11-18T21:19:05.533Z,57.44
2023-11-18T21:21:32.036Z,57.40
2023-11-18T21:23:58.511Z,57.04
2023-11-18T21:26:24.935Z,57.78
2023-11-18T21:28:51.359Z,56.58
2023-11-18T21:31:17.962Z,56.11
2023-11-18T21:33:47.496Z,56.34
2023-11-18T21:36:13.941Z,58.24
2023-11-18T21:38:40.414Z,60.09
2023-11-18T21:41:07.019Z,62.14
2023-11-18T21:43:33.429Z,62.53
2023-11-18T21:45:59.957Z,61.28
2023-11-18T21:48:26.445Z,60.27
2023-11-18T21:50:53.031Z,60.89
2023-11-18T21:53:19.470Z,61.67
2023-11-18T21:55:47.077Z,61.37
2023-11-18T21:58:13.500Z,62.52
2023-11-18T22:00:45.364Z,62.54
2023-11-18T22:03:12.349Z,60.93
2023-11-18T22:05:39.090Z,62.70
2023-11-18T22:08:05.716Z,64.09
2023-11-18T22:10:32.281Z,64.45
2023-11-18T22:12:59.006Z,62.38
2023-11-18T22:15:25.610Z,63.37
2023-11-18T22:17:52.232Z,61.87
2023-11-18T22:20:19.131Z,61.29
2023-11-18T22:22:45.720Z,61.47
2023-11-18T22:25:12.137Z,61.37
2023-11-18T22:27:38.643Z,61.07
2023-11-18T22:30:05.168Z,60.89
2023-11-18T22:32:31.674Z,61.53
2023-11-18T22:34:58.230Z,60.90
2023-11-18T22:37:24.813Z,61.17
2023-11-18T22:39:51.195Z,61.43
2023-11-18T22:42:17.640Z,62.16
2023-11-18T22:44:44.173Z,61.36
2023-11-18T22:47:10.664Z,61.65
2023-11-18T22:49:37.196Z,61.23
2023-11-18T22:52:03.643Z,62.45
2023-11-18T22:54:30.060Z,64.13
2023-11-18T22:56:56.629Z,64.25
2023-11-18T22:59:23.075Z,64.57
2023-11-18T23:01:49.701Z,63.47
2023-11-18T23:04:16.309Z,63.00
2023-11-18T23:06:43.065Z,61.99
2023-11-18T23:09:09.491Z,61.70
2023-11-18T23:11:35.920Z,61.32
2023-11-18T23:14:02.353Z,60.72
2023-11-18T23:16:28.779Z,60.68
2023-11-18T23:18:55.476Z,60.81
2023-11-18T23:21:21.978Z,60.61
2023-11-18T23:23:48.526Z,60.77
2023-11-18T23:26:15.134Z,60.82
2023-11-18T23:28:41.699Z,60.98
2023-11-18T23:31:08.168Z,62.21
2023-11-18T23:33:34.970Z,62.57
2023-11-18T23:36:01.559Z,62.21
2023-11-18T23:38:28.068Z,62.47
2023-11-18T23:40:54.470Z,62.04
2023-11-18T23:43:21.068Z,61.17
2023-11-18T23:45:47.524Z,60.46
2023-11-18T23:48:14.010Z,61.49
2023-11-18T23:50:40.490Z,62.01
2023-11-18T23:53:06.904Z,62.76
2023-11-18T23:55:33.349Z,61.81
2023-11-18T23:57:59.772Z,62.22
